Time;durP1;ratioP1;P1;durP2;ratioP2;P2;SDS_P1;SDS_P2;PMS_P1;PMS_P2;Temp;Humidity;BMP_temperature;BMP_pressure;BME280_temperature;BME280_humidity;BME280_pressure;Samples;Min_cycle;Max_cycle;Signal;HPM_P1;HPM_P2
2023/03/07 00:01:22;;;;;;;24.37;16.27;;;4.40;99.90;;;;;;5058410;28;20494;-78
2023/03/07 00:03:48;;;;;;;26.10;15.80;;;4.30;99.90;;;;;;5049158;28;20543;-78
2023/03/07 00:06:13;;;;;;;21.67;15.40;;;4.50;99.90;;;;;;5038326;28;20941;-79
2023/03/07 00:08:39;;;;;;;25.33;15.00;;;4.50;99.90;;;;;;5059763;28;20585;-77
2023/03/07 00:11:07;;;;;;;21.20;14.53;;;4.50;99.90;;;;;;5061269;28;20232;-77
2023/03/07 00:13:36;;;;;;;19.97;13.53;;;4.60;99.90;;;;;;5059924;28;20180;-77
2023/03/07 00:16:07;;;;;;;22.50;12.70;;;4.60;99.90;;;;;;5060249;28;20450;-80
2023/03/07 00:18:33;;;;;;;14.93;10.50;;;4.60;99.90;;;;;;5061090;28;20432;-77
2023/03/07 00:21:01;;;;;;;14.83;10.80;;;4.70;99.90;;;;;;5062515;28;20428;-78
2023/03/07 00:23:27;;;;;;;13.10;9.50;;;4.70;99.90;;;;;;5053016;28;20853;-78
2023/03/07 00:26:15;;;;;;;12.93;9.17;;;4.60;99.90;;;;;;5058597;28;20931;-78
2023/03/07 00:28:42;;;;;;;13.80;9.17;;;4.60;99.90;;;;;;5053798;28;20447;-78
2023/03/07 00:31:10;;;;;;;11.27;8.60;;;4.60;99.90;;;;;;5056943;28;20504;-78
2023/03/07 00:33:36;;;;;;;10.90;8.43;;;4.70;99.90;;;;;;5058834;28;20423;-78
2023/03/07 00:36:13;;;;;;;10.43;7.87;;;4.80;99.90;;;;;;5069138;28;20770;-78
2023/03/07 00:38:40;;;;;;;11.10;8.30;;;4.80;99.90;;;;;;5064093;28;20431;-78
2023/03/07 00:41:18;;;;;;;12.33;9.30;;;4.70;99.90;;;;;;5068936;28;20419;-78
2023/03/07 00:43:45;;;;;;;11.87;8.40;;;4.70;99.90;;;;;;5061553;28;20506;-78
2023/03/07 00:46:15;;;;;;;12.63;8.53;;;4.90;99.90;;;;;;5060986;28;20756;-78
2023/03/07 00:48:41;;;;;;;11.80;8.50;;;5.10;99.90;;;;;;5061554;28;20438;-78
2023/03/07 00:51:09;;;;;;;11.80;8.73;;;4.90;99.90;;;;;;5065357;28;20463;-78
2023/03/07 00:53:35;;;;;;;11.70;8.73;;;4.80;99.90;;;;;;5065428;28;21082;-79
2023/03/07 00:56:14;;;;;;;10.40;8.30;;;4.80;99.90;;;;;;5053080;28;20416;-77
2023/03/07 00:58:40;;;;;;;11.03;8.57;;;4.90;99.90;;;;;;5054589;28;20440;-78
2023/03/07 01:01:08;;;;;;;11.77;8.80;;;4.90;99.90;;;;;;5058702;28;20491;-78
2023/03/07 01:03:35;;;;;;;10.70;9.00;;;4.90;99.90;;;;;;5067294;28;20420;-78
2023/03/07 01:06:06;;;;;;;9.63;7.80;;;4.90;99.90;;;;;;5055715;28;20431;-78
2023/03/07 01:08:32;;;;;;;8.57;7.20;;;5.00;99.90;;;;;;5045198;28;20488;-78
2023/03/07 01:11:00;;;;;;;10.10;7.70;;;5.10;99.90;;;;;;5060734;28;20459;-78
2023/03/07 01:13:26;;;;;;;10.73;8.37;;;5.10;99.90;;;;;;5054149;28;20524;-78
2023/03/07 01:15:52;;;;;;;10.60;8.03;;;5.10;99.90;;;;;;5065494;28;20450;-78
2023/03/07 01:18:18;;;;;;;8.40;6.43;;;5.10;99.90;;;;;;5059453;28;20435;-79
2023/03/07 01:20:44;;;;;;;8.27;6.87;;;5.00;99.90;;;;;;5057190;28;20300;-78
2023/03/07 01:23:09;;;;;;;9.63;7.50;;;5.20;99.90;;;;;;5056955;28;20268;-78
2023/03/07 01:25:40;;;;;;;10.40;7.60;;;5.00;99.90;;;;;;5070666;28;20722;-78
2023/03/07 01:28:06;;;;;;;8.23;6.53;;;5.00;99.90;;;;;;5063952;28;20284;-78
2023/03/07 01:30:32;;;;;;;7.33;5.83;;;5.10;99.90;;;;;;5061241;28;20463;-78
2023/03/07 01:32:59;;;;;;;8.67;6.37;;;4.90;99.90;;;;;;5042338;28;20411;-78
2023/03/07 01:35:26;;;;;;;7.70;6.50;;;4.90;99.90;;;;;;5072170;28;20247;-78
2023/03/07 01:37:52;;;;;;;9.33;7.00;;;5.00;99.90;;;;;;5070512;28;20842;-77
2023/03/07 01:40:20;;;;;;;8.43;7.00;;;4.90;99.90;;;;;;5070732;28;20407;-77
2023/03/07 01:42:45;;;;;;;8.47;6.93;;;5.20;99.90;;;;;;5072002;28;20759;-78
2023/03/07 01:45:11;;;;;;;8.10;6.00;;;5.10;99.90;;;;;;5071587;28;20473;-78
2023/03/07 01:47:37;;;;;;;9.70;7.30;;;4.90;99.90;;;;;;5071400;28;20557;-77
2023/03/07 01:50:09;;;;;;;9.03;6.80;;;5.10;99.90;;;;;;5071527;28;20236;-78
2023/03/07 01:52:40;;;;;;;9.87;7.60;;;4.90;99.90;;;;;;5071627;28;20900;-77
2023/03/07 01:55:20;;;;;;;7.97;6.67;;;5.00;99.90;;;;;;5070536;28;20981;-77
2023/03/07 01:57:48;;;;;;;9.27;8.30;;;5.00;99.90;;;;;;5071074;28;20431;-79
2023/03/07 02:00:28;;;;;;;6.80;5.53;;;5.10;99.90;;;;;;5071178;28;20486;-77
2023/03/07 02:03:11;;;;;;;8.20;6.27;;;5.10;99.90;;;;;;5070184;28;20451;-78
2023/03/07 02:05:50;;;;;;;7.63;5.90;;;5.30;99.90;;;;;;5071205;28;20469;-77
2023/03/07 02:08:19;;;;;;;7.13;5.40;;;5.10;99.90;;;;;;5070926;28;21263;-78
2023/03/07 02:10:44;;;;;;;7.80;6.17;;;5.20;99.90;;;;;;5070801;28;20463;-78
2023/03/07 02:13:10;;;;;;;7.50;5.30;;;5.20;99.90;;;;;;5069748;28;20449;-77
2023/03/07 02:15:36;;;;;;;8.23;5.97;;;4.90;99.90;;;;;;5070873;28;20179;-78
2023/03/07 02:18:03;;;;;;;9.03;5.90;;;5.10;99.90;;;;;;5070688;28;20225;-79
2023/03/07 02:20:54;;;;;;;5.83;4.90;;;5.30;99.90;;;;;;5069614;28;20477;-77
2023/03/07 02:23:33;;;;;;;4.97;4.43;;;5.40;99.90;;;;;;5070702;28;20407;-78
2023/03/07 02:26:36;;;;;;;6.57;4.90;;;5.10;99.90;;;;;;5070742;28;20422;-77
2023/03/07 02:29:02;;;;;;;5.60;4.37;;;5.20;99.90;;;;;;5068204;28;20973;-79
2023/03/07 02:31:28;;;;;;;5.37;4.07;;;5.20;99.90;;;;;;5070447;28;20412;-77
2023/03/07 02:33:53;;;;;;;5.70;4.20;;;5.20;99.90;;;;;;5070429;28;20231;-77
2023/03/07 02:36:32;;;;;;;6.53;4.53;;;5.30;99.90;;;;;;5070801;28;20634;-79
2023/03/07 02:39:01;;;;;;;4.40;4.00;;;5.20;99.90;;;;;;5070414;28;20200;-76
2023/03/07 02:41:30;;;;;;;3.67;3.27;;;5.40;99.90;;;;;;5070284;28;20404;-79
2023/03/07 02:43:56;;;;;;;4.50;3.20;;;5.30;99.90;;;;;;5070145;28;20403;-78
2023/03/07 02:46:22;;;;;;;5.10;3.60;;;5.30;99.90;;;;;;5069095;28;20774;-77
2023/03/07 02:48:48;;;;;;;5.10;3.93;;;5.10;99.90;;;;;;5069995;28;20593;-78
2023/03/07 02:51:14;;;;;;;4.43;3.97;;;5.30;99.90;;;;;;5070122;28;20818;-78
2023/03/07 02:53:40;;;;;;;5.20;4.17;;;5.40;99.90;;;;;;5070168;28;20220;-77
2023/03/07 02:56:06;;;;;;;4.80;4.17;;;5.20;99.90;;;;;;5070297;28;20427;-78
2023/03/07 02:58:32;;;;;;;4.23;3.57;;;5.40;99.90;;;;;;5069847;28;20594;-78
2023/03/07 03:00:58;;;;;;;4.20;3.40;;;5.30;99.90;;;;;;5070157;28;20411;-78
2023/03/07 03:03:24;;;;;;;4.80;3.77;;;5.20;99.90;;;;;;5069687;28;20418;-78
2023/03/07 03:05:50;;;;;;;3.90;3.30;;;5.20;99.90;;;;;;5069985;28;20511;-78
2023/03/07 03:08:16;;;;;;;3.97;3.60;;;5.20;99.90;;;;;;5069634;28;20201;-78
2023/03/07 03:10:41;;;;;;;4.23;3.60;;;5.40;99.90;;;;;;5069728;28;20345;-77
2023/03/07 03:13:07;;;;;;;4.53;4.03;;;5.20;99.90;;;;;;5068530;28;20169;-78
2023/03/07 03:15:33;;;;;;;3.80;3.33;;;5.30;99.90;;;;;;5069755;28;20176;-78
2023/03/07 03:17:58;;;;;;;4.83;3.63;;;5.20;99.90;;;;;;5069459;28;20239;-78
2023/03/07 03:20:24;;;;;;;4.17;3.67;;;5.20;99.90;;;;;;5069689;28;20214;-77
2023/03/07 03:22:51;;;;;;;3.63;3.27;;;5.20;99.90;;;;;;5069761;28;20256;-78
2023/03/07 03:25:18;;;;;;;3.40;3.10;;;5.20;99.90;;;;;;5069640;28;20441;-78
2023/03/07 03:27:43;;;;;;;3.20;2.90;;;5.40;99.90;;;;;;5069374;28;20446;-78
2023/03/07 03:30:11;;;;;;;3.60;3.03;;;5.40;99.90;;;;;;5068254;28;20451;-78
2023/03/07 03:32:38;;;;;;;2.77;2.53;;;5.30;99.90;;;;;;5069524;28;20173;-78
2023/03/07 03:35:04;;;;;;;3.03;2.73;;;5.20;99.90;;;;;;5069292;28;20879;-78
2023/03/07 03:37:31;;;;;;;3.47;3.17;;;5.30;99.90;;;;;;5069316;28;20949;-77
2023/03/07 03:39:57;;;;;;;4.50;3.17;;;5.30;99.90;;;;;;5068620;28;20874;-79
2023/03/07 03:42:23;;;;;;;2.47;2.27;;;5.20;99.90;;;;;;5069520;28;20503;-78
2023/03/07 03:44:48;;;;;;;2.90;2.60;;;4.90;99.90;;;;;;5069460;28;20185;-77
2023/03/07 03:47:14;;;;;;;3.20;2.90;;;5.00;99.90;;;;;;5069267;28;20242;-78
2023/03/07 03:49:40;;;;;;;2.70;2.50;;;5.30;99.90;;;;;;5069391;28;20204;-78
2023/03/07 03:52:06;;;;;;;5.23;3.00;;;5.20;99.90;;;;;;5068177;28;20952;-77
2023/03/07 03:54:32;;;;;;;4.30;3.60;;;5.10;99.90;;;;;;5069410;28;20191;-77
2023/03/07 03:56:58;;;;;;;3.43;2.90;;;5.20;99.90;;;;;;5069141;28;20445;-79
2023/03/07 03:59:23;;;;;;;3.90;3.20;;;5.10;99.90;;;;;;5067966;28;20180;-78
2023/03/07 04:01:49;;;;;;;3.30;3.00;;;5.30;99.90;;;;;;5068212;28;20634;-79
2023/03/07 04:04:15;;;;;;;3.40;3.10;;;5.10;99.90;;;;;;5069087;28;20411;-78
2023/03/07 04:06:41;;;;;;;3.70;3.40;;;5.30;99.90;;;;;;5069165;28;20192;-78
2023/03/07 04:09:08;;;;;;;4.00;3.50;;;5.20;99.90;;;;;;5068969;28;20622;-78
2023/03/07 04:11:34;;;;;;;3.63;3.33;;;5.10;99.90;;;;;;5069136;28;20412;-78
2023/03/07 04:14:01;;;;;;;5.17;3.50;;;5.10;99.90;;;;;;5067952;28;21087;-78
2023/03/07 04:16:27;;;;;;;4.90;3.80;;;5.10;99.90;;;;;;5069188;28;20449;-78
2023/03/07 04:18:53;;;;;;;3.30;2.83;;;5.30;99.90;;;;;;5068807;28;20435;-78
2023/03/07 04:21:19;;;;;;;4.10;3.47;;;5.20;99.90;;;;;;5069029;28;20180;-78
2023/03/07 04:23:48;;;;;;;3.13;2.80;;;5.30;99.90;;;;;;5068936;28;20967;-78
2023/03/07 04:26:14;;;;;;;3.13;2.77;;;5.20;99.90;;;;;;5069254;28;20422;-78
2023/03/07 04:28:45;;;;;;;4.10;3.10;;;5.20;99.90;;;;;;5068835;28;20581;-79
2023/03/07 04:31:16;;;;;;;3.60;3.20;;;5.40;99.90;;;;;;5069017;28;20458;-78
2023/03/07 04:33:42;;;;;;;3.20;2.60;;;5.30;99.90;;;;;;5068925;28;20468;-78
2023/03/07 04:36:09;;;;;;;3.30;2.93;;;5.00;99.90;;;;;;5069446;28;20399;-77
2023/03/07 04:38:37;;;;;;;6.07;3.07;;;5.20;99.90;;;;;;5068515;28;20201;-78
2023/03/07 04:41:04;;;;;;;3.43;3.00;;;5.00;99.90;;;;;;5068447;28;20408;-77
2023/03/07 04:43:30;;;;;;;3.83;3.00;;;5.10;99.90;;;;;;5068456;28;20419;-77
2023/03/07 04:45:56;;;;;;;4.17;3.33;;;5.10;99.90;;;;;;5055922;28;20425;-77
2023/03/07 04:48:21;;;;;;;4.00;3.53;;;5.10;99.90;;;;;;5046997;28;20671;-77
2023/03/07 04:50:49;;;;;;;5.33;4.83;;;5.10;99.90;;;;;;5048911;28;20205;-77
2023/03/07 04:53:15;;;;;;;4.63;4.23;;;4.90;99.90;;;;;;5034056;28;20178;-77
2023/03/07 04:55:41;;;;;;;6.47;5.10;;;5.00;99.90;;;;;;5052478;28;20458;-77
2023/03/07 04:58:11;;;;;;;5.10;4.60;;;5.20;99.90;;;;;;5051943;28;20424;-77
2023/03/07 05:00:43;;;;;;;7.07;6.27;;;5.00;99.90;;;;;;5052136;28;20170;-77
2023/03/07 05:03:11;;;;;;;6.23;5.20;;;5.00;99.90;;;;;;5051959;28;20416;-77
2023/03/07 05:05:37;;;;;;;6.60;5.70;;;5.30;99.90;;;;;;5052336;28;20434;-77
2023/03/07 05:08:03;;;;;;;8.07;6.20;;;5.20;99.90;;;;;;5051838;28;20436;-78
2023/03/07 05:10:30;;;;;;;7.00;6.30;;;5.20;99.90;;;;;;5050578;28;20517;-77
2023/03/07 05:12:56;;;;;;;9.20;7.60;;;5.30;99.90;;;;;;5051938;28;20416;-78
2023/03/07 05:15:22;;;;;;;8.17;6.47;;;5.40;99.90;;;;;;5051821;28;20409;-77
2023/03/07 05:17:47;;;;;;;9.50;7.67;;;5.20;99.90;;;;;;5051648;28;20198;-77
2023/03/07 05:20:13;;;;;;;9.67;7.43;;;5.40;99.90;;;;;;5051877;28;20815;-77
2023/03/07 05:22:39;;;;;;;9.47;8.17;;;5.20;99.90;;;;;;5051851;28;20174;-77
2023/03/07 05:25:05;;;;;;;8.27;7.33;;;5.30;99.90;;;;;;5050363;28;20178;-78
2023/03/07 05:27:31;;;;;;;9.50;8.30;;;5.20;99.90;;;;;;5051436;28;20201;-77
2023/03/07 05:29:56;;;;;;;8.20;7.20;;;5.10;99.90;;;;;;5051411;28;20459;-78
2023/03/07 05:32:22;;;;;;;8.50;7.70;;;5.10;99.90;;;;;;5051756;28;20235;-77
2023/03/07 05:34:48;;;;;;;9.13;8.20;;;5.20;99.90;;;;;;5051410;28;20185;-77
2023/03/07 05:37:13;;;;;;;8.13;7.20;;;5.00;99.90;;;;;;5050111;28;20190;-77
2023/03/07 05:39:39;;;;;;;10.00;8.27;;;5.00;99.90;;;;;;5050167;28;20212;-77
2023/03/07 05:42:05;;;;;;;10.00;8.10;;;5.00;99.90;;;;;;5051652;28;20177;-77
2023/03/07 05:44:30;;;;;;;10.43;8.90;;;5.20;99.90;;;;;;5051712;28;20261;-78
2023/03/07 05:46:56;;;;;;;9.13;8.20;;;5.20;99.90;;;;;;5051199;28;20263;-77
2023/03/07 05:49:23;;;;;;;11.13;8.47;;;5.00;99.90;;;;;;5051241;28;20343;-77
2023/03/07 05:51:49;;;;;;;8.90;8.00;;;5.10;99.90;;;;;;5033509;28;20547;-78
2023/03/07 05:54:15;;;;;;;9.83;8.10;;;5.00;99.90;;;;;;5051090;28;20535;-77
2023/03/07 05:56:41;;;;;;;8.77;7.90;;;5.20;99.90;;;;;;5050054;28;20808;-77
2023/03/07 05:59:10;;;;;;;9.00;8.10;;;5.10;99.90;;;;;;5050907;28;20488;-77
2023/03/07 06:01:35;;;;;;;8.20;6.90;;;5.30;99.90;;;;;;5051191;28;20427;-77
2023/03/07 06:04:01;;;;;;;9.20;7.80;;;5.10;99.90;;;;;;5049909;28;20479;-78
2023/03/07 06:06:27;;;;;;;8.43;7.63;;;5.10;99.90;;;;;;5051069;28;20532;-77
2023/03/07 06:08:53;;;;;;;11.80;8.10;;;5.20;99.90;;;;;;5050995;28;20856;-77
2023/03/07 06:11:19;;;;;;;9.30;7.50;;;5.20;99.90;;;;;;5051269;28;20241;-77
2023/03/07 06:13:44;;;;;;;9.30;7.80;;;5.10;99.90;;;;;;5051378;28;20220;-77
2023/03/07 06:16:10;;;;;;;8.83;7.73;;;5.10;99.90;;;;;;5059764;28;20704;-77
2023/03/07 06:18:36;;;;;;;10.07;8.37;;;5.10;99.90;;;;;;5057679;28;20219;-77
2023/03/07 06:21:04;;;;;;;9.97;8.40;;;5.10;99.90;;;;;;5054756;28;20653;-77
2023/03/07 06:23:33;;;;;;;10.23;7.60;;;5.00;99.90;;;;;;5049557;28;20189;-79
2023/03/07 06:25:59;;;;;;;9.77;8.67;;;5.20;99.90;;;;;;5041005;28;20413;-79
2023/03/07 06:28:25;;;;;;;8.80;7.40;;;5.00;99.90;;;;;;5036539;28;20452;-78
2023/03/07 06:30:51;;;;;;;10.37;9.17;;;5.30;99.90;;;;;;5036301;28;20563;-79
2023/03/07 06:33:17;;;;;;;9.67;8.30;;;5.10;99.90;;;;;;5036044;28;20484;-79
2023/03/07 06:35:43;;;;;;;9.73;8.53;;;5.00;99.90;;;;;;5035223;28;20200;-79
2023/03/07 06:38:11;;;;;;;10.30;8.00;;;4.90;99.90;;;;;;5035854;28;20430;-80
2023/03/07 06:40:37;;;;;;;10.03;8.50;;;4.90;99.90;;;;;;5035969;28;20417;-79
2023/03/07 06:43:03;;;;;;;10.40;8.13;;;5.20;99.90;;;;;;5036124;28;20493;-78
2023/03/07 06:45:28;;;;;;;10.33;8.77;;;5.20;99.90;;;;;;5054588;28;20455;-78
2023/03/07 06:47:54;;;;;;;9.93;7.83;;;5.10;99.90;;;;;;5074222;28;20476;-80
2023/03/07 06:50:20;;;;;;;9.67;8.60;;;5.10;99.90;;;;;;5073039;28;20466;-78
2023/03/07 06:52:47;;;;;;;9.50;8.50;;;5.10;99.90;;;;;;5052309;28;20288;-80
2023/03/07 06:55:13;;;;;;;9.93;8.20;;;5.10;99.90;;;;;;5055485;28;20413;-80
2023/03/07 06:57:38;;;;;;;9.33;8.37;;;5.40;99.90;;;;;;5054976;28;20439;-78
2023/03/07 07:00:05;;;;;;;12.03;9.60;;;5.20;99.90;;;;;;5055039;28;20178;-80
2023/03/07 07:02:31;;;;;;;10.20;8.80;;;5.10;99.90;;;;;;5054759;28;20284;-76
2023/03/07 07:04:57;;;;;;;12.37;10.37;;;5.30;99.90;;;;;;5052798;28;20443;-80
2023/03/07 07:07:24;;;;;;;11.20;9.43;;;5.30;99.90;;;;;;5054062;28;21201;-79
2023/03/07 07:09:50;;;;;;;10.53;9.17;;;5.20;99.90;;;;;;5054672;28;20213;-79
2023/03/07 07:12:16;;;;;;;11.73;8.80;;;5.40;99.90;;;;;;5053910;28;20411;-77
2023/03/07 07:14:41;;;;;;;12.53;9.27;;;5.20;99.90;;;;;;5054625;28;20408;-78
2023/03/07 07:17:07;;;;;;;12.33;9.33;;;5.20;99.90;;;;;;5054720;28;20494;-79
2023/03/07 07:19:33;;;;;;;10.63;8.37;;;5.10;99.90;;;;;;5054846;28;20192;-78
2023/03/07 07:21:59;;;;;;;9.67;8.33;;;5.30;99.90;;;;;;5037251;28;20424;-79
2023/03/07 07:24:25;;;;;;;11.93;8.63;;;5.30;99.90;;;;;;5054651;28;20416;-80
2023/03/07 07:26:51;;;;;;;10.07;8.13;;;5.10;99.90;;;;;;5053007;28;20198;-77
2023/03/07 07:29:16;;;;;;;8.27;7.47;;;5.10;99.90;;;;;;5053066;28;20439;-80
2023/03/07 07:31:42;;;;;;;12.83;8.80;;;5.30;99.90;;;;;;5054426;28;20178;-79
2023/03/07 07:34:08;;;;;;;11.43;8.43;;;5.10;99.90;;;;;;5053275;28;20205;-78
2023/03/07 07:36:34;;;;;;;9.33;8.27;;;5.20;99.90;;;;;;5050212;28;20714;-77
2023/03/07 07:39:04;;;;;;;8.93;8.00;;;5.30;99.90;;;;;;5044578;28;20423;-80
2023/03/07 07:41:30;;;;;;;11.33;9.10;;;5.40;99.90;;;;;;5021910;28;20192;-77
2023/03/07 07:43:56;;;;;;;9.50;8.00;;;5.20;99.90;;;;;;5054373;28;20428;-78
2023/03/07 07:46:22;;;;;;;9.27;7.93;;;5.00;99.90;;;;;;5070966;28;20458;-80
2023/03/07 07:48:48;;;;;;;11.73;9.60;;;5.10;99.90;;;;;;5074621;28;21009;-78
2023/03/07 07:51:14;;;;;;;13.73;8.90;;;5.20;99.90;;;;;;5074005;28;20515;-80
2023/03/07 07:53:40;;;;;;;11.33;8.87;;;5.30;99.90;;;;;;5052958;28;20170;-78
2023/03/07 07:56:06;;;;;;;9.80;8.53;;;5.10;99.90;;;;;;5054695;28;20286;-77
2023/03/07 07:58:31;;;;;;;12.57;9.17;;;5.40;99.90;;;;;;5054231;28;20590;-79
2023/03/07 08:00:57;;;;;;;10.23;8.50;;;5.20;99.90;;;;;;5054046;28;20416;-78
2023/03/07 08:03:23;;;;;;;12.50;9.33;;;5.10;99.90;;;;;;5054416;28;20215;-76
2023/03/07 08:05:49;;;;;;;10.80;8.80;;;5.40;99.90;;;;;;5054011;28;20276;-78
2023/03/07 08:08:18;;;;;;;10.00;8.57;;;5.30;99.90;;;;;;5053833;28;20685;-78
2023/03/07 08:10:48;;;;;;;9.57;7.93;;;5.30;99.90;;;;;;5053549;28;20468;-78
2023/03/07 08:13:16;;;;;;;10.80;8.60;;;5.40;99.90;;;;;;5053493;28;20751;-77
2023/03/07 08:15:42;;;;;;;11.50;9.33;;;5.00;99.90;;;;;;5054326;28;20438;-76
2023/03/07 08:18:09;;;;;;;11.60;8.43;;;5.30;99.90;;;;;;5053785;28;20428;-78
2023/03/07 08:20:36;;;;;;;9.73;8.20;;;5.30;99.90;;;;;;5053664;28;21109;-78
2023/03/07 08:23:02;;;;;;;10.70;8.80;;;5.30;99.90;;;;;;5036192;28;20416;-77
2023/03/07 08:25:28;;;;;;;10.00;8.43;;;5.40;99.90;;;;;;5054228;28;20835;-77
2023/03/07 08:27:55;;;;;;;11.00;9.07;;;5.40;99.90;;;;;;5055844;28;20442;-80
2023/03/07 08:30:23;;;;;;;11.10;9.03;;;5.50;99.90;;;;;;5050064;28;20945;-78
2023/03/07 08:32:49;;;;;;;10.97;8.10;;;5.40;99.90;;;;;;5057043;28;20415;-79
2023/03/07 08:35:16;;;;;;;11.57;8.57;;;5.30;99.90;;;;;;5040117;28;20475;-78
2023/03/07 08:37:41;;;;;;;12.30;8.17;;;5.40;99.90;;;;;;5039826;28;20464;-78
2023/03/07 08:40:08;;;;;;;10.40;8.00;;;5.50;99.90;;;;;;5056248;28;21342;-78
2023/03/07 08:42:34;;;;;;;9.73;7.80;;;5.30;99.90;;;;;;5057278;28;20413;-79
2023/03/07 08:45:00;;;;;;;11.10;8.40;;;5.50;99.90;;;;;;5062653;28;20419;-79
2023/03/07 08:47:25;;;;;;;9.93;8.03;;;5.50;99.90;;;;;;5059365;28;20216;-79
2023/03/07 08:49:51;;;;;;;9.50;7.70;;;5.40;99.90;;;;;;5075787;28;20970;-78
2023/03/07 08:52:17;;;;;;;8.17;7.23;;;5.30;99.90;;;;;;5069180;28;20638;-77
2023/03/07 08:54:43;;;;;;;10.67;7.60;;;5.40;99.90;;;;;;5039012;28;20427;-80
2023/03/07 08:57:08;;;;;;;10.60;8.30;;;5.30;99.90;;;;;;5057426;28;20202;-78
2023/03/07 08:59:34;;;;;;;9.30;7.07;;;5.60;99.90;;;;;;5057347;28;21013;-81
2023/03/07 09:01:59;;;;;;;8.57;6.97;;;5.30;99.90;;;;;;5057669;28;20188;-79
2023/03/07 09:04:25;;;;;;;8.80;7.00;;;5.50;99.90;;;;;;5055841;28;20603;-76
2023/03/07 09:06:51;;;;;;;7.03;6.33;;;5.50;99.90;;;;;;5056539;28;20217;-81
2023/03/07 09:09:17;;;;;;;8.73;7.40;;;5.50;99.90;;;;;;5055828;28;20815;-78
2023/03/07 09:11:42;;;;;;;8.43;6.77;;;5.40;99.90;;;;;;5057571;28;20425;-77
2023/03/07 09:14:08;;;;;;;7.27;6.53;;;5.50;99.90;;;;;;5056841;28;20220;-78
2023/03/07 09:16:34;;;;;;;8.87;7.27;;;5.30;99.90;;;;;;5057400;28;20178;-79
2023/03/07 09:19:00;;;;;;;8.60;7.10;;;5.30;99.90;;;;;;5057278;28;20214;-78
2023/03/07 09:21:25;;;;;;;8.20;6.60;;;5.40;99.90;;;;;;5055618;28;20201;-78
2023/03/07 09:23:51;;;;;;;8.07;6.70;;;5.40;99.90;;;;;;5057045;28;20444;-78
2023/03/07 09:26:17;;;;;;;7.90;6.23;;;5.30;99.90;;;;;;5057192;28;20186;-78
2023/03/07 09:28:42;;;;;;;7.97;6.70;;;5.60;99.90;;;;;;5056812;28;20198;-80
2023/03/07 09:31:10;;;;;;;10.30;7.93;;;5.40;99.90;;;;;;5055521;28;20705;-79
2023/03/07 09:33:36;;;;;;;10.80;7.97;;;5.30;99.90;;;;;;5055282;28;20217;-78
2023/03/07 09:36:06;;;;;;;8.20;6.87;;;5.40;99.90;;;;;;5057431;28;20424;-80
2023/03/07 09:38:32;;;;;;;8.77;7.47;;;5.30;99.90;;;;;;5056585;28;20952;-78
2023/03/07 09:41:07;;;;;;;10.23;8.10;;;5.30;99.90;;;;;;5056309;28;20499;-78
2023/03/07 09:44:02;;;;;;;9.60;7.73;;;5.10;99.90;;;;;;5056034;28;20924;-78
2023/03/07 09:46:40;;;;;;;8.90;7.43;;;5.00;99.90;;;;;;5074308;28;20430;-79
2023/03/07 09:49:17;;;;;;;9.20;7.03;;;4.90;99.90;;;;;;5073427;28;20477;-78
2023/03/07 09:51:47;;;;;;;9.30;7.17;;;5.00;99.90;;;;;;5071285;28;20443;-78
2023/03/07 09:54:15;;;;;;;7.53;5.80;;;4.80;99.90;;;;;;5056598;28;20420;-77
2023/03/07 09:56:58;;;;;;;5.73;4.97;;;5.10;99.90;;;;;;5056212;28;20433;-78
2023/03/07 09:59:35;;;;;;;4.73;4.23;;;4.90;99.90;;;;;;5056190;28;20781;-80
2023/03/07 10:02:22;;;;;;;5.20;4.70;;;4.90;99.90;;;;;;5056627;28;20506;-80
2023/03/07 10:05:32;;;;;;;5.00;4.50;;;4.80;99.90;;;;;;5056897;28;20404;-78
2023/03/07 10:08:00;;;;;;;3.97;3.40;;;4.70;99.90;;;;;;5046041;28;20440;-77
2023/03/07 10:10:38;;;;;;;3.80;3.13;;;4.70;99.90;;;;;;5054693;28;20468;-78
2023/03/07 10:13:31;;;;;;;4.10;3.63;;;4.60;99.90;;;;;;5056738;28;20404;-79
2023/03/07 10:16:02;;;;;;;4.20;3.80;;;4.70;99.90;;;;;;5056762;28;20411;-81
2023/03/07 10:18:43;;;;;;;4.43;3.33;;;4.70;99.90;;;;;;5054688;28;20432;-79
2023/03/07 10:21:27;;;;;;;4.30;3.80;;;4.70;99.90;;;;;;5056239;28;20889;-80
2023/03/07 10:24:26;;;;;;;4.50;4.10;;;4.90;99.90;;;;;;5054535;28;20420;-78
2023/03/07 10:26:57;;;;;;;4.30;3.67;;;4.70;99.90;;;;;;5056248;28;20435;-81
2023/03/07 10:29:26;;;;;;;5.03;4.53;;;4.70;99.90;;;;;;5056056;28;20427;-80
2023/03/07 10:32:03;;;;;;;4.40;4.00;;;4.60;99.90;;;;;;5055655;28;20700;-80
2023/03/07 10:34:29;;;;;;;6.80;5.27;;;4.70;99.90;;;;;;5055198;28;20446;-80
2023/03/07 10:37:18;;;;;;;5.23;4.73;;;4.50;99.90;;;;;;5039370;28;20452;-79
2023/03/07 10:39:55;;;;;;;6.43;5.83;;;4.80;99.90;;;;;;5057651;28;20404;-80
2023/03/07 10:42:32;;;;;;;6.33;5.80;;;4.60;99.90;;;;;;5058034;28;20495;-78
2023/03/07 10:44:58;;;;;;;6.73;5.70;;;4.80;99.90;;;;;;5062593;28;20434;-80
2023/03/07 10:47:26;;;;;;;6.93;6.23;;;4.50;99.90;;;;;;5077200;28;20431;-80
2023/03/07 10:49:59;;;;;;;6.70;6.00;;;4.70;99.90;;;;;;5078463;28;20280;-79
2023/03/07 10:52:47;;;;;;;7.80;6.70;;;4.60;99.90;;;;;;5075179;28;20412;-79
2023/03/07 10:55:32;;;;;;;6.60;5.87;;;4.60;99.90;;;;;;5065370;28;20443;-77
2023/03/07 10:58:14;;;;;;;6.63;5.80;;;4.70;99.90;;;;;;5041411;28;20447;-79
2023/03/07 11:00:43;;;;;;;6.70;5.70;;;4.70;99.90;;;;;;5054570;28;20420;-79
2023/03/07 11:03:25;;;;;;;7.03;6.10;;;4.60;99.90;;;;;;5053527;28;20424;-78
2023/03/07 11:05:51;;;;;;;6.27;5.67;;;4.50;99.90;;;;;;5051783;28;20432;-79
2023/03/07 11:08:28;;;;;;;6.70;5.53;;;4.60;99.90;;;;;;5049794;28;20446;-80
2023/03/07 11:10:54;;;;;;;5.87;5.27;;;4.80;99.90;;;;;;5053373;28;20967;-80
2023/03/07 11:13:21;;;;;;;6.43;5.83;;;4.70;99.90;;;;;;5053236;28;20777;-80
2023/03/07 11:15:48;;;;;;;6.00;5.27;;;4.60;99.90;;;;;;5054073;28;20470;-80
2023/03/07 11:18:39;;;;;;;6.20;5.60;;;4.80;99.90;;;;;;5051936;28;20448;-80
2023/03/07 11:21:05;;;;;;;6.10;5.13;;;4.60;99.90;;;;;;5053444;28;20965;-80
2023/03/07 11:23:31;;;;;;;6.00;5.20;;;4.60;99.90;;;;;;5052017;28;20416;-80
2023/03/07 11:26:15;;;;;;;5.43;4.93;;;4.60;99.90;;;;;;5053838;28;20404;-80
2023/03/07 11:28:41;;;;;;;7.00;5.50;;;4.60;99.90;;;;;;5052738;28;20436;-80
2023/03/07 11:31:26;;;;;;;5.57;5.07;;;4.70;99.90;;;;;;5035265;28;20474;-77
2023/03/07 11:34:02;;;;;;;5.90;4.90;;;4.50;99.90;;;;;;5053294;28;20178;-79
2023/03/07 11:36:28;;;;;;;5.20;4.70;;;4.60;99.90;;;;;;5053868;28;20434;-79
2023/03/07 11:39:00;;;;;;;5.53;5.03;;;4.50;99.90;;;;;;5054097;28;20436;-79
2023/03/07 11:41:28;;;;;;;7.00;5.40;;;4.60;99.90;;;;;;5053387;28;20190;-80
2023/03/07 11:44:19;;;;;;;6.27;5.67;;;4.40;99.90;;;;;;5052771;28;20906;-80
2023/03/07 11:46:56;;;;;;;7.23;5.63;;;4.60;99.90;;;;;;5073579;28;21069;-80
2023/03/07 11:49:39;;;;;;;5.53;5.00;;;4.30;99.90;;;;;;5072384;28;20493;-79
2023/03/07 11:52:33;;;;;;;6.40;5.60;;;4.40;99.90;;;;;;5066701;28;20415;-76
2023/03/07 11:55:23;;;;;;;6.17;5.37;;;4.50;99.90;;;;;;5053834;28;20438;-80
2023/03/07 11:58:14;;;;;;;6.27;5.67;;;4.50;99.90;;;;;;5052582;28;20436;-78
2023/03/07 12:01:00;;;;;;;7.93;5.77;;;4.60;99.90;;;;;;5054256;28;20924;-79
2023/03/07 12:03:35;;;;;;;5.60;4.67;;;4.40;99.90;;;;;;5058007;28;20418;-80
2023/03/07 12:06:24;;;;;;;4.80;4.20;;;4.50;99.90;;;;;;5058463;28;20428;-81
2023/03/07 12:09:18;;;;;;;5.73;4.70;;;4.40;99.90;;;;;;5056861;28;20448;-80
2023/03/07 12:11:56;;;;;;;5.10;4.60;;;4.70;99.90;;;;;;5050229;28;20765;-80
2023/03/07 12:14:37;;;;;;;5.60;5.00;;;4.50;99.90;;;;;;5058313;28;20422;-79
2023/03/07 12:17:03;;;;;;;5.03;4.33;;;4.40;99.90;;;;;;5056286;28;20845;-80
2023/03/07 12:19:53;;;;;;;4.53;3.80;;;4.40;99.90;;;;;;5056670;28;20409;-79
2023/03/07 12:22:25;;;;;;;7.20;4.70;;;4.40;99.90;;;;;;5057379;28;20189;-79
2023/03/07 12:25:08;;;;;;;4.77;4.23;;;4.50;99.90;;;;;;5056862;28;20403;-78
2023/03/07 12:28:16;;;;;;;5.93;4.83;;;4.50;99.90;;;;;;5056749;28;20633;-80
2023/03/07 12:30:49;;;;;;;5.33;4.73;;;4.50;99.90;;;;;;5051418;28;20682;-80
2023/03/07 12:33:39;;;;;;;6.00;5.40;;;4.50;99.90;;;;;;5057786;28;20412;-78
2023/03/07 12:36:10;;;;;;;6.10;4.73;;;4.40;99.90;;;;;;5058297;28;20759;-78
2023/03/07 12:38:48;;;;;;;5.87;5.27;;;4.60;99.90;;;;;;5058266;28;20435;-79
2023/03/07 12:41:29;;;;;;;6.80;6.10;;;4.30;99.90;;;;;;5058260;28;20400;-80
2023/03/07 12:44:02;;;;;;;7.83;6.33;;;4.70;99.90;;;;;;5057873;28;20416;-77
2023/03/07 12:46:46;;;;;;;9.10;7.17;;;4.60;99.90;;;;;;5075667;28;20458;-80
2023/03/07 12:49:32;;;;;;;9.80;7.20;;;4.40;99.90;;;;;;5077077;28;20423;-79
2023/03/07 12:52:03;;;;;;;9.50;7.93;;;4.50;99.90;;;;;;5072377;28;20420;-77
2023/03/07 12:54:41;;;;;;;11.50;8.30;;;4.50;99.90;;;;;;5056723;28;20492;-79
2023/03/07 12:57:19;;;;;;;11.50;9.00;;;4.50;99.90;;;;;;5056662;28;20439;-80
2023/03/07 12:59:45;;;;;;;9.30;7.73;;;4.50;99.90;;;;;;5057159;28;20475;-79
2023/03/07 13:02:20;;;;;;;10.40;7.60;;;4.70;99.90;;;;;;5058437;28;20456;-80
2023/03/07 13:04:46;;;;;;;9.30;7.03;;;4.60;99.90;;;;;;5039983;28;20197;-80
2023/03/07 13:07:29;;;;;;;9.93;7.93;;;4.70;99.90;;;;;;5058394;28;20524;-78